createdAt,value
2022-08-19T00:01:31.171Z,20.48
2022-08-19T00:04:00.342Z,22.95
2022-08-19T00:06:29.622Z,21.52
2022-08-19T00:08:56.832Z,23.77
2022-08-19T00:11:25.309Z,25.17
2022-08-19T00:13:52.554Z,23.67
2022-08-19T00:16:25.227Z,24.40
2022-08-19T00:18:52.984Z,25.60
2022-08-19T00:21:19.690Z,25.13
2022-08-19T00:23:46.394Z,26.40
2022-08-19T00:26:13.111Z,27.05
2022-08-19T00:28:39.790Z,27.38
2022-08-19T00:31:09.084Z,28.38
2022-08-19T00:33:35.852Z,29.83
2022-08-19T00:36:06.513Z,28.80
2022-08-19T00:38:37.756Z,29.30
2022-08-19T00:41:06.811Z,29.42
2022-08-19T00:43:33.927Z,29.42
2022-08-19T00:46:02.433Z,27.52
2022-08-19T00:48:29.464Z,29.58
2022-08-19T00:50:56.567Z,30.90
2022-08-19T00:53:27.420Z,31.25
2022-08-19T00:55:57.483Z,31.98
2022-08-19T00:58:29.344Z,30.92
2022-08-19T01:00:56.094Z,31.70
2022-08-19T01:03:23.464Z,30.70
2022-08-19T01:05:53.112Z,34.42
2022-08-19T01:08:21.017Z,32.03
2022-08-19T01:10:55.239Z,33.63
2022-08-19T01:13:26.678Z,32.92
2022-08-19T01:15:57.527Z,32.70
2022-08-19T01:18:25.440Z,32.30
2022-08-19T01:20:55.302Z,33.72
2022-08-19T01:23:22.018Z,33.47
2022-08-19T01:25:53.471Z,33.85
2022-08-19T01:28:34.018Z,34.13
2022-08-19T01:31:01.160Z,36.20
2022-08-19T01:33:34.883Z,34.88
2022-08-19T01:36:07.790Z,35.05
2022-08-19T01:38:44.389Z,34.33
2022-08-19T01:41:13.428Z,34.30
2022-08-19T01:44:17.199Z,36.83
2022-08-19T01:46:26.912Z,36.28
2022-08-19T01:48:53.484Z,36.70
2022-08-19T01:51:20.148Z,35.42
2022-08-19T01:53:51.471Z,35.30
2022-08-19T01:56:19.922Z,35.03
2022-08-19T01:58:56.672Z,35.30
2022-08-19T02:01:23.473Z,36.60
2022-08-19T02:03:55.108Z,33.20
2022-08-19T02:06:26.780Z,35.15
2022-08-19T02:08:57.336Z,34.95
2022-08-19T02:11:32.448Z,35.95
2022-08-19T02:14:01.016Z,37.60
2022-08-19T02:16:27.674Z,34.80
2022-08-19T02:18:54.324Z,37.22
2022-08-19T02:21:22.877Z,36.30
2022-08-19T02:23:51.095Z,37.45
2022-08-19T02:26:18.462Z,38.20
2022-08-19T02:28:45.075Z,39.85
2022-08-19T02:31:18.097Z,37.33
2022-08-19T02:33:46.097Z,38.60
2022-08-19T02:36:14.573Z,38.75
2022-08-19T02:38:43.121Z,37.25
2022-08-19T02:41:18.828Z,38.28
2022-08-19T02:44:29.303Z,38.83
2022-08-19T02:46:34.557Z,38.33
2022-08-19T02:49:06.206Z,37.90
2022-08-19T02:51:39.661Z,37.95
2022-08-19T02:54:07.471Z,38.90
2022-08-19T02:56:36.369Z,36.70
2022-08-19T02:59:03.687Z,36.60
2022-08-19T03:01:33.113Z,36.42
2022-08-19T03:04:02.606Z,35.90
2022-08-19T03:06:30.089Z,35.60
2022-08-19T03:08:57.808Z,34.80
2022-08-19T03:11:28.061Z,35.40
2022-08-19T03:13:55.373Z,35.37
2022-08-19T03:16:24.657Z,37.58
2022-08-19T03:18:52.308Z,37.65
2022-08-19T03:21:24.862Z,36.63
2022-08-19T03:23:55.023Z,34.25
2022-08-19T03:26:21.646Z,36.08
2022-08-19T03:28:51.832Z,36.10
2022-08-19T03:31:45.481Z,34.70
2022-08-19T03:34:15.440Z,34.40
2022-08-19T03:36:42.345Z,36.60
2022-08-19T03:39:09.519Z,33.30
2022-08-19T03:41:45.487Z,36.05
2022-08-19T03:44:21.736Z,35.47
2022-08-19T03:46:51.429Z,36.05
2022-08-19T03:49:19.014Z,34.53
2022-08-19T03:51:49.207Z,36.58
2022-08-19T03:54:19.589Z,36.10
2022-08-19T03:56:49.438Z,37.13
2022-08-19T03:59:22.335Z,35.60
2022-08-19T04:01:48.931Z,36.22
2022-08-19T04:04:15.532Z,35.13
2022-08-19T04:06:42.227Z,35.45
2022-08-19T04:09:12.227Z,35.80
2022-08-19T04:11:44.493Z,39.08
2022-08-19T04:14:20.553Z,36.25
2022-08-19T04:16:48.546Z,36.45
2022-08-19T04:19:16.188Z,39.63
2022-08-19T04:21:45.214Z,36.53
2022-08-19T04:24:12.815Z,37.67
2022-08-19T04:26:40.047Z,36.53
2022-08-19T04:29:12.497Z,39.05
2022-08-19T04:31:41.072Z,38.22
2022-08-19T04:34:09.402Z,40.15
2022-08-19T04:36:37.894Z,39.33
2022-08-19T04:39:16.560Z,40.45
2022-08-19T04:42:01.958Z,39.20
2022-08-19T04:44:31.561Z,40.15
2022-08-19T04:47:01.442Z,39.05
2022-08-19T04:49:28.667Z,40.72
2022-08-19T04:51:55.628Z,41.47
2022-08-19T04:54:38.562Z,41.08
2022-08-19T04:57:11.164Z,41.75
2022-08-19T04:59:39.626Z,40.38
2022-08-19T05:02:09.299Z,41.88
2022-08-19T05:04:39.591Z,40.42
2022-08-19T05:07:10.933Z,40.30
2022-08-19T05:09:58.345Z,41.90
2022-08-19T05:12:28.975Z,40.97
2022-08-19T05:14:57.890Z,42.13
2022-08-19T05:17:30.999Z,41.10
2022-08-19T05:20:18.646Z,39.55
2022-08-19T05:22:48.107Z,40.25
2022-08-19T05:25:20.102Z,40.03
2022-08-19T05:27:48.147Z,38.58
2022-08-19T05:30:15.441Z,39.83
2022-08-19T05:32:43.498Z,40.22
2022-08-19T05:35:10.674Z,39.90
2022-08-19T05:37:37.641Z,38.35
2022-08-19T05:40:05.298Z,40.33
2022-08-19T05:42:32.740Z,39.30
2022-08-19T05:44:59.429Z,39.05
2022-08-19T05:47:26.124Z,40.03
2022-08-19T05:49:52.791Z,38.50
2022-08-19T05:52:26.074Z,37.75
2022-08-19T05:54:56.130Z,37.60
2022-08-19T05:57:23.341Z,36.47
2022-08-19T05:59:53.224Z,37.42
2022-08-19T06:02:29.071Z,36.63
2022-08-19T06:04:55.757Z,37.58
2022-08-19T06:07:23.103Z,36.08
2022-08-19T06:10:00.748Z,35.85
2022-08-19T06:12:32.576Z,36.53
2022-08-19T06:15:01.652Z,34.75
2022-08-19T06:17:31.690Z,35.30
2022-08-19T06:19:59.267Z,36.20
2022-08-19T06:22:25.970Z,35.95
2022-08-19T06:24:54.586Z,38.08
2022-08-19T06:27:22.642Z,37.50
2022-08-19T06:29:49.950Z,37.47
2022-08-19T06:32:18.816Z,36.95
2022-08-19T06:34:45.634Z,36.95
2022-08-19T06:37:13.794Z,35.97
2022-08-19T06:39:42.482Z,39.38
2022-08-19T06:42:12.502Z,36.42
2022-08-19T06:44:43.243Z,36.40
2022-08-19T06:47:25.136Z,36.47
2022-08-19T06:50:03.954Z,36.15
2022-08-19T06:52:34.242Z,37.53
2022-08-19T06:55:06.076Z,36.85
2022-08-19T06:57:34.920Z,36.95
2022-08-19T07:00:02.054Z,37.83
2022-08-19T07:02:28.729Z,37.50
2022-08-19T07:04:58.343Z,36.38
2022-08-19T07:07:25.762Z,36.07
2022-08-19T07:09:58.996Z,36.88
2022-08-19T07:12:33.941Z,36.70
2022-08-19T07:15:04.703Z,35.90
2022-08-19T07:17:31.855Z,39.40
2022-08-19T07:20:06.739Z,36.60
2022-08-19T07:22:36.043Z,36.60
2022-08-19T07:25:04.731Z,37.28
2022-08-19T07:27:33.447Z,36.55
2022-08-19T07:30:00.914Z,35.15
2022-08-19T07:32:27.812Z,36.90
2022-08-19T07:34:55.420Z,34.67
2022-08-19T07:37:24.285Z,35.80
2022-08-19T07:39:50.923Z,35.10
2022-08-19T07:42:19.037Z,34.88
2022-08-19T07:44:50.190Z,35.72
2022-08-19T07:47:49.241Z,35.22
2022-08-19T07:50:09.598Z,35.20
2022-08-19T07:52:39.619Z,34.38
2022-08-19T07:55:40.624Z,35.83
2022-08-19T07:57:56.620Z,37.33
2022-08-19T08:00:24.625Z,36.47
2022-08-19T08:02:52.970Z,35.85
2022-08-19T08:05:43.999Z,36.08
2022-08-19T08:08:30.588Z,35.40
2022-08-19T08:10:57.451Z,35.40
2022-08-19T08:13:25.577Z,36.13
2022-08-19T08:15:55.873Z,36.17
2022-08-19T08:18:27.375Z,38.30
2022-08-19T08:20:56.229Z,37.47
2022-08-19T08:23:24.749Z,34.97
2022-08-19T08:25:53.393Z,35.95
2022-08-19T08:28:20.366Z,34.25
2022-08-19T08:30:49.301Z,34.50
2022-08-19T08:33:30.002Z,34.25
2022-08-19T08:36:03.946Z,34.42
2022-08-19T08:38:38.426Z,35.95
2022-08-19T08:41:35.933Z,35.33
2022-08-19T08:44:05.545Z,34.70
2022-08-19T08:46:41.093Z,35.85
2022-08-19T08:49:16.458Z,34.80
2022-08-19T08:51:48.392Z,35.25
2022-08-19T08:54:38.386Z,35.83
2022-08-19T08:57:18.913Z,34.05
2022-08-19T08:59:51.803Z,35.50
2022-08-19T09:02:19.505Z,36.47
2022-08-19T09:04:46.850Z,37.10
2022-08-19T09:07:49.141Z,37.78
2022-08-19T09:13:13.345Z,37.28
2022-08-19T09:15:45.875Z,38.63
2022-08-19T09:18:19.370Z,41.15
2022-08-19T09:20:48.403Z,40.33
2022-08-19T09:23:16.120Z,39.15
2022-08-19T09:25:42.874Z,42.45
2022-08-19T09:28:20.611Z,38.50
2022-08-19T09:30:49.487Z,37.90
2022-08-19T09:33:17.086Z,37.15
2022-08-19T09:35:53.103Z,38.67
2022-08-19T09:38:21.878Z,38.40
2022-08-19T09:40:48.758Z,37.45
2022-08-19T09:43:15.488Z,37.28
2022-08-19T09:46:01.182Z,36.28
2022-08-19T09:48:27.805Z,35.88
2022-08-19T09:50:54.898Z,37.47
2022-08-19T09:53:25.340Z,37.38
2022-08-19T09:55:52.410Z,36.63
2022-08-19T09:58:22.282Z,35.67
2022-08-19T10:00:51.535Z,35.85
2022-08-19T10:03:18.351Z,36.95
2022-08-19T10:05:54.497Z,35.15
2022-08-19T10:08:26.841Z,36.08
2022-08-19T10:10:55.837Z,37.33
2022-08-19T10:13:27.142Z,39.17
2022-08-19T10:18:23.963Z,37.90
2022-08-19T10:20:53.288Z,38.97
2022-08-19T10:23:22.124Z,40.55
2022-08-19T10:25:49.852Z,42.80
2022-08-19T10:28:19.249Z,41.78
2022-08-19T10:30:47.211Z,43.42
2022-08-19T10:33:15.010Z,42.63
2022-08-19T10:35:42.492Z,43.22
2022-08-19T10:38:31.425Z,43.17
2022-08-19T10:40:59.384Z,42.55
2022-08-19T10:43:26.205Z,41.72
2022-08-19T10:45:59.415Z,40.35
2022-08-19T10:48:26.173Z,43.60
2022-08-19T10:51:12.521Z,43.28
2022-08-19T10:53:50.571Z,43.72
2022-08-19T10:56:37.185Z,43.95
2022-08-19T10:59:05.247Z,44.25
2022-08-19T11:01:34.302Z,43.72
2022-08-19T11:04:03.237Z,42.38
2022-08-19T11:06:31.950Z,44.05
2022-08-19T11:08:59.025Z,44.03
2022-08-19T11:11:25.736Z,45.03
2022-08-19T11:13:53.031Z,45.17
2022-08-19T11:16:22.692Z,43.05
2022-08-19T11:18:52.370Z,43.05
2022-08-19T11:21:32.669Z,42.35
2022-08-19T11:24:02.499Z,41.10
2022-08-19T11:26:31.091Z,41.03
2022-08-19T11:28:59.041Z,39.60
2022-08-19T11:31:29.804Z,38.85
2022-08-19T11:34:02.456Z,38.63
2022-08-19T11:36:30.039Z,35.30
2022-08-19T11:38:56.817Z,37.08
2022-08-19T11:41:24.827Z,32.13
2022-08-19T11:43:54.936Z,30.10
2022-08-19T11:46:23.618Z,28.67
2022-08-19T11:48:51.626Z,27.80
2022-08-19T11:51:22.908Z,26.45
2022-08-19T11:53:51.276Z,25.08
2022-08-19T11:56:19.792Z,21.63
2022-08-19T11:58:46.670Z,20.88
2022-08-19T12:01:17.113Z,19.58
2022-08-19T12:03:48.937Z,19.73
2022-08-19T12:06:19.150Z,19.00
2022-08-19T12:08:48.450Z,20.47
2022-08-19T12:11:15.438Z,21.48
2022-08-19T12:13:45.862Z,20.63
2022-08-19T12:16:21.248Z,20.30
2022-08-19T12:18:48.418Z,19.13
2022-08-19T12:21:17.538Z,20.92
2022-08-19T12:23:46.344Z,20.83
2022-08-19T12:26:13.256Z,19.00
2022-08-19T12:28:40.210Z,19.67
2022-08-19T12:31:07.076Z,17.60
2022-08-19T12:33:34.221Z,17.20
2022-08-19T12:36:05.012Z,17.02
2022-08-19T12:38:33.195Z,16.35
2022-08-19T12:41:00.456Z,15.82
2022-08-19T12:43:28.049Z,15.23
2022-08-19T12:45:54.635Z,14.38
2022-08-19T12:48:34.504Z,13.75
2022-08-19T12:51:07.868Z,13.13
2022-08-19T12:53:34.958Z,14.73
2022-08-19T12:56:08.975Z,11.70
2022-08-19T12:58:39.520Z,11.30
2022-08-19T13:01:16.026Z,11.07
2022-08-19T13:03:46.558Z,8.38
2022-08-19T13:06:13.799Z,7.05
2022-08-19T13:11:18.507Z,5.93
2022-08-19T13:13:48.476Z,6.70
2022-08-19T13:16:16.653Z,6.10
2022-08-19T13:18:45.986Z,5.72
2022-08-19T13:21:14.021Z,5.35
2022-08-19T13:23:41.687Z,5.70
2022-08-19T13:26:10.013Z,5.85
2022-08-19T13:29:09.037Z,6.28
2022-08-19T13:31:55.454Z,7.43
2022-08-19T13:34:34.804Z,8.95
2022-08-19T13:37:04.079Z,9.60
2022-08-19T13:39:33.334Z,9.52
2022-08-19T13:42:00.962Z,9.85
2022-08-19T13:44:30.592Z,9.93
2022-08-19T13:47:07.839Z,10.20
2022-08-19T13:49:37.160Z,10.38
2022-08-19T13:52:05.930Z,10.95
2022-08-19T13:54:32.615Z,11.65
2022-08-19T13:56:59.220Z,13.40
2022-08-19T13:59:26.145Z,13.90
2022-08-19T14:01:52.849Z,14.00
2022-08-19T14:04:19.417Z,14.70
2022-08-19T14:06:46.052Z,13.48
2022-08-19T14:09:12.646Z,13.52
2022-08-19T14:11:39.298Z,14.27
2022-08-19T14:14:06.060Z,14.70
2022-08-19T14:16:32.739Z,13.38
2022-08-19T14:18:59.349Z,15.13
2022-08-19T14:21:26.561Z,18.98
2022-08-19T14:23:54.139Z,22.45
2022-08-19T14:26:24.298Z,17.65
2022-08-19T14:28:53.056Z,23.83
2022-08-19T14:31:20.159Z,23.42
2022-08-19T14:33:48.151Z,27.77
2022-08-19T14:36:14.930Z,14.80
2022-08-19T14:38:42.486Z,13.63
2022-08-19T14:41:12.297Z,33.78
2022-08-19T14:43:39.339Z,15.02
2022-08-19T14:46:06.787Z,20.50
2022-08-19T14:48:33.795Z,16.88
2022-08-19T14:51:00.446Z,18.52
2022-08-19T14:53:27.088Z,16.55
2022-08-19T14:55:53.728Z,15.25
2022-08-19T14:58:29.107Z,16.33
2022-08-19T15:00:57.495Z,16.02
2022-08-19T15:03:24.115Z,17.90
2022-08-19T15:05:50.796Z,13.10
2022-08-19T15:08:17.398Z,13.60
2022-08-19T15:10:44.034Z,13.25
2022-08-19T15:13:10.846Z,16.17
2022-08-19T15:15:38.257Z,13.73
2022-08-19T15:18:04.932Z,15.18
2022-08-19T15:20:31.955Z,16.15
2022-08-19T15:23:02.142Z,15.45
2022-08-19T15:25:28.782Z,16.30
2022-08-19T15:27:55.534Z,16.90
2022-08-19T15:30:26.559Z,16.45
2022-08-19T15:32:53.546Z,16.63
2022-08-19T15:35:20.563Z,18.42
2022-08-19T15:37:51.118Z,24.23
2022-08-19T15:40:18.807Z,22.55
2022-08-19T15:42:45.632Z,19.30
2022-08-19T15:45:14.036Z,18.67
2022-08-19T15:47:41.198Z,20.13
2022-08-19T15:50:12.259Z,20.92
2022-08-19T15:52:54.427Z,21.65
2022-08-19T15:55:34.114Z,21.40
2022-08-19T15:58:28.806Z,20.00
2022-08-19T16:01:20.791Z,20.50
2022-08-19T16:04:14.584Z,20.08
2022-08-19T16:06:52.719Z,21.75
2022-08-19T16:09:27.033Z,21.60
2022-08-19T16:11:57.223Z,22.35
2022-08-19T16:14:28.297Z,22.45
2022-08-19T16:16:56.774Z,23.30
2022-08-19T16:19:24.375Z,22.15
2022-08-19T16:21:52.582Z,22.27
2022-08-19T16:24:28.510Z,23.00
2022-08-19T16:26:56.587Z,23.02
2022-08-19T16:29:33.367Z,21.70
2022-08-19T16:32:04.006Z,22.85
2022-08-19T16:34:31.083Z,23.05
2022-08-19T16:36:57.968Z,22.60
2022-08-19T16:39:24.628Z,22.70
2022-08-19T16:41:51.663Z,21.67
2022-08-19T16:44:20.826Z,22.20
2022-08-19T16:46:58.385Z,21.58
2022-08-19T16:49:53.328Z,19.52
2022-08-19T16:52:14.850Z,20.10
2022-08-19T16:54:43.624Z,20.95
2022-08-19T16:57:11.800Z,22.30
2022-08-19T16:59:42.481Z,20.02
2022-08-19T17:02:17.948Z,20.40
2022-08-19T17:04:44.571Z,21.85
2022-08-19T17:07:24.288Z,19.45
2022-08-19T17:09:50.965Z,20.75
2022-08-19T17:12:17.604Z,20.27
2022-08-19T17:14:46.052Z,19.75
2022-08-19T17:17:12.899Z,19.65
2022-08-19T17:19:41.833Z,18.67
2022-08-19T17:22:11.415Z,20.33
2022-08-19T17:24:38.560Z,17.67
2022-08-19T17:27:08.993Z,19.17
2022-08-19T17:29:35.793Z,19.85
2022-08-19T17:32:02.687Z,18.33
2022-08-19T17:34:29.285Z,17.83
2022-08-19T17:36:58.490Z,17.80
2022-08-19T17:39:25.502Z,18.40
2022-08-19T17:41:52.179Z,19.45
2022-08-19T17:44:19.007Z,19.00
2022-08-19T17:46:46.791Z,18.23
2022-08-19T17:49:14.404Z,17.95
2022-08-19T17:51:45.024Z,18.48
2022-08-19T17:54:18.637Z,21.05
2022-08-19T17:56:46.292Z,21.05
2022-08-19T17:59:14.749Z,19.60
2022-08-19T18:01:53.740Z,20.75
2022-08-19T18:04:23.225Z,21.27
2022-08-19T18:06:53.272Z,20.70
2022-08-19T18:09:41.511Z,20.45
2022-08-19T18:12:14.175Z,21.90
2022-08-19T18:14:41.601Z,22.00
2022-08-19T18:17:11.499Z,21.02
2022-08-19T18:19:41.256Z,21.73
2022-08-19T18:22:29.893Z,21.38
2022-08-19T18:24:58.250Z,23.50
2022-08-19T18:27:27.080Z,27.45
2022-08-19T18:29:59.424Z,24.10
2022-08-19T18:32:34.546Z,23.17
2022-08-19T18:35:03.663Z,23.20
2022-08-19T18:37:30.250Z,26.80
2022-08-19T18:40:15.226Z,25.20
2022-08-19T18:43:22.751Z,31.83
2022-08-19T18:46:08.250Z,27.77
2022-08-19T18:48:54.947Z,27.15
2022-08-19T18:51:26.409Z,27.85
2022-08-19T18:53:57.274Z,28.83
2022-08-19T18:56:28.296Z,27.13
2022-08-19T18:58:56.156Z,29.40
2022-08-19T19:01:29.503Z,28.80
2022-08-19T19:04:00.530Z,28.98
2022-08-19T19:06:31.098Z,30.38
2022-08-19T19:08:58.352Z,31.38
2022-08-19T19:11:28.128Z,31.27
2022-08-19T19:13:54.855Z,30.88
2022-08-19T19:16:24.443Z,31.65
2022-08-19T19:18:52.852Z,31.90
2022-08-19T19:21:22.967Z,34.25
2022-08-19T19:23:50.424Z,32.03
2022-08-19T19:26:17.674Z,32.25
2022-08-19T19:28:46.176Z,35.40
2022-08-19T19:31:19.896Z,32.35
2022-08-19T19:33:46.670Z,33.38
2022-08-19T19:36:13.812Z,32.55
2022-08-19T19:38:48.239Z,34.28
2022-08-19T19:41:19.936Z,34.70
2022-08-19T19:43:46.766Z,36.17
2022-08-19T19:46:15.974Z,35.05
2022-08-19T19:48:42.573Z,36.08
2022-08-19T19:51:10.568Z,36.80
2022-08-19T19:53:37.252Z,38.20
2022-08-19T19:56:04.316Z,38.80
2022-08-19T19:58:34.857Z,39.60
2022-08-19T20:01:02.538Z,40.05
2022-08-19T20:03:36.240Z,37.58
2022-08-19T20:06:03.024Z,38.63
2022-08-19T20:08:47.966Z,41.03
2022-08-19T20:11:26.854Z,40.13
2022-08-19T20:13:53.473Z,40.75
2022-08-19T20:16:20.045Z,41.85
2022-08-19T20:18:48.403Z,44.70
2022-08-19T20:21:14.987Z,44.65
2022-08-19T20:23:44.688Z,42.95
2022-08-19T20:26:33.784Z,42.55
2022-08-19T20:29:13.408Z,43.00
2022-08-19T20:31:57.710Z,45.10
2022-08-19T20:34:26.218Z,44.70
2022-08-19T20:36:53.080Z,43.65
2022-08-19T20:39:19.679Z,45.58
2022-08-19T20:41:46.284Z,44.83
2022-08-19T20:44:12.862Z,45.42
2022-08-19T20:46:39.876Z,47.38
2022-08-19T20:49:06.513Z,45.38
2022-08-19T20:51:33.234Z,44.53
2022-08-19T20:53:59.827Z,45.05
2022-08-19T20:56:27.544Z,44.78
2022-08-19T20:58:59.772Z,44.83
2022-08-19T21:03:53.380Z,43.15
2022-08-19T21:06:20.518Z,42.38
2022-08-19T21:08:49.805Z,43.92
2022-08-19T21:11:20.643Z,43.30
2022-08-19T21:13:48.337Z,41.35
2022-08-19T21:16:14.939Z,40.97
2022-08-19T21:18:41.764Z,40.58
2022-08-19T21:21:08.336Z,39.30
2022-08-19T21:23:35.009Z,40.58
2022-08-19T21:26:01.729Z,39.83
2022-08-19T21:28:34.550Z,39.67
2022-08-19T21:31:04.012Z,38.78
2022-08-19T21:33:32.108Z,40.60
2022-08-19T21:36:00.164Z,37.85
2022-08-19T21:38:27.497Z,40.17
2022-08-19T21:40:54.895Z,40.13
2022-08-19T21:43:22.314Z,40.25
2022-08-19T21:45:50.474Z,38.53
2022-08-19T21:48:17.954Z,38.90
2022-08-19T21:50:48.263Z,40.83
2022-08-19T21:53:18.678Z,39.15
2022-08-19T21:55:48.989Z,38.70
2022-08-19T21:58:19.997Z,38.97
2022-08-19T22:00:56.458Z,38.55
2022-08-19T22:03:23.841Z,37.35
2022-08-19T22:05:50.812Z,38.28
2022-08-19T22:08:17.474Z,38.28
2022-08-19T22:10:44.089Z,38.42
2022-08-19T22:13:13.163Z,39.15
2022-08-19T22:15:41.016Z,39.20
2022-08-19T22:18:07.610Z,38.22
2022-08-19T22:20:34.286Z,38.13
2022-08-19T22:23:04.079Z,38.83
2022-08-19T22:25:36.448Z,37.75
2022-08-19T22:28:06.242Z,37.20
2022-08-19T22:30:34.669Z,38.42
2022-08-19T22:33:05.040Z,38.00
2022-08-19T22:35:34.740Z,39.43
2022-08-19T22:38:02.377Z,38.47
2022-08-19T22:40:30.485Z,38.17
2022-08-19T22:43:10.164Z,37.13
2022-08-19T22:45:37.140Z,37.42
2022-08-19T22:48:07.913Z,36.95
2022-08-19T22:50:38.379Z,34.08
2022-08-19T22:53:07.481Z,34.35
2022-08-19T22:55:35.996Z,31.10
2022-08-19T22:58:02.704Z,28.35
2022-08-19T23:00:29.659Z,25.80
2022-08-19T23:02:57.666Z,26.15
2022-08-19T23:05:27.177Z,21.58
2022-08-19T23:07:54.548Z,19.98
2022-08-19T23:10:27.368Z,17.77
2022-08-19T23:12:56.762Z,16.63
2022-08-19T23:15:27.485Z,16.00
2022-08-19T23:17:56.939Z,15.13
2022-08-19T23:20:27.020Z,15.48
2022-08-19T23:22:54.694Z,14.32
2022-08-19T23:25:24.769Z,13.68
2022-08-19T23:28:10.559Z,13.18
2022-08-19T23:30:43.642Z,12.75
2022-08-19T23:33:21.371Z,12.52
2022-08-19T23:35:48.598Z,11.75
2022-08-19T23:38:15.205Z,11.93
2022-08-19T23:40:42.317Z,11.25
2022-08-19T23:43:09.679Z,10.93
2022-08-19T23:45:50.981Z,10.52
2022-08-19T23:48:18.512Z,10.43
2022-08-19T23:50:46.173Z,10.57
2022-08-19T23:53:13.593Z,11.43
2022-08-19T23:55:44.214Z,10.93
2022-08-19T23:58:11.591Z,9.82
